LFBA 181700Z AUTO 29014KT 9999 //////TCU 27/14 Q1016 BECMG NSC

ElémentsDécodage
LFBA Station météo située sur l'aérodrome de AGEN La Garenne
181700Z émis le 18 du mois à 17h00 UTC
AUTO Bulletin édité par un automate
29014KT vent du 290°, 14 noeuds
9999 visibilité horizontale supérieure à 10 Km
//////TCU nébulosité (type et hauteur) non disponible
 présence de cumulus congestus
27/14 température 27°C, point de rosée 14°C
 soit une humidité relative de 45%
Q1016 la pression au niveau de la mer (QNH) est de 1016 hPa
BECMG fluctuation du temps prévue
NSC pas de nuage significatif (pas de nuage <5000ft, pas de CB)